EPPOEPZG

Guest
Details From EPPO - Lawica
To EPZG - Babimost
Flight Number -
Tags Routegen Generated
Created
Modified
Stats Distance 41 nm / 77 km
Max Altitude 100 ft / 30 m
Waypoints 5
Social Downloads 20
Likes 0
Share

Download

Looking for another format? Having issues loading an existing format? Contact us
Advertisement - Login to hide

Notes

Departing runway 28 EPPO. Arriving runway 6 EPZG.

Route

EPPO +52.45_+016.69 +52.31_+016.31 +52.17_+015.92 EPZG

ID Type Via Altitude (ft/m) Position (lat/lon) Dist (leg/tot) Name
O EPPO APT - 0 / 0 52.42494 / 16.80609 - / 0 nm
+52.45_+016.69 LATLON - 100 / 30 52.44676 / 16.69291 4 / 4 nm
+52.31_+016.31 LATLON - 100 / 30 52.31053 / 16.30729 16 / 20 nm
+52.17_+015.92 LATLON - 100 / 30 52.17430 / 15.92166 16 / 37 nm
O EPZG APT - 0 / 0 52.14333 / 15.81506 4 / 41 nm

Altitude Profile

Advertisement - Login to hide

EPPO

Details ICAO EPPO (POZ)
Name Poznan-Henryk Wieniawski
Region Poland
Timezone Europe/Warsaw (UTC+2.0)
Stats Elevation 308 ft / 94 m (AMSL)
Location 52.421600° 16.823600°
Runways 1
Magnetic Variation 5.103° E

METAR

EPPO 302030Z 01005KT CAVOK 13/10 Q1012

Decode

TAF

TAF EPPO 301730Z 3018/0118 35008KT 9999 SCT030 BECMG 3023/0102 BKN006 TEMPO 0100/0108 4000 -RA BR BKN003 BECMG 0107/0110 BKN014 TEMPO 0114/0118 BKN009

Decode

Departure Runways

ID Width Length Bearing (true/mag) Surface Threshold Overrun Markings Lighting
10 164 ft / 50 m 8,223 ft / 2,506 m 107.59° / 102.49° ASPHALT 0 ft / 0 m 0 ft / 0 m PREC-APP CENTERLINE EDGE THRESHOLD SALS TDZ
28 164 ft / 50 m 8,223 ft / 2,506 m 287.62° / 282.51° ASPHALT 0 ft / 0 m 0 ft / 0 m PREC-APP CENTERLINE EDGE THRESHOLD ALSF-I TDZ

EPZG

Details ICAO EPZG (IEG)
Name ZIELONA GORA BABIMOST
Region Poland
Timezone Europe/Warsaw (UTC+2.0)
Stats Elevation 193 ft / 59 m (AMSL)
Location 52.138600° 15.798400°
Runways 1
Magnetic Variation 4.793° E

METAR

EPZG 302000Z 32003KT 270V360 9999 FEW037 13/11 Q1013

Decode

TAF

Not found

Destination Runways

ID Width Length Bearing (true/mag) Surface Threshold Overrun Markings Lighting
06 197 ft / 60 m 8,169 ft / 2,490 m 64.50° / 59.70° CONCRETE 0 ft / 0 m 0 ft / 0 m UK-APP EDGE THRESHOLD
24 197 ft / 60 m 8,169 ft / 2,490 m 244.52° / 239.73° CONCRETE 0 ft / 0 m 0 ft / 0 m UK-APP EDGE THRESHOLD

Popular Alternatives